createdAt,value
2023-05-03T00:01:10.573Z,3.50
2023-05-03T00:03:40.285Z,3.83
2023-05-03T00:06:15.742Z,3.40
2023-05-03T00:08:46.013Z,3.92
2023-05-03T00:11:16.179Z,3.70
2023-05-03T00:13:46.249Z,3.20
2023-05-03T00:16:16.220Z,3.38
2023-05-03T00:18:47.794Z,3.30
2023-05-03T00:21:18.096Z,3.60
2023-05-03T00:23:48.198Z,3.85
2023-05-03T00:26:18.253Z,3.53
2023-05-03T00:28:48.048Z,3.58
2023-05-03T00:31:17.956Z,3.67
2023-05-03T00:33:50.443Z,4.22
2023-05-03T00:36:20.453Z,5.43
2023-05-03T00:38:50.323Z,4.47
2023-05-03T00:41:20.434Z,3.70
2023-05-03T00:43:50.468Z,4.10
2023-05-03T00:46:20.849Z,3.70
2023-05-03T00:48:51.787Z,4.32
2023-05-03T00:51:23.691Z,3.83
2023-05-03T00:53:52.024Z,4.10
2023-05-03T00:56:23.980Z,4.13
2023-05-03T00:58:53.953Z,3.75
2023-05-03T01:01:24.322Z,4.15
2023-05-03T01:03:54.505Z,4.28
2023-05-03T01:06:39.349Z,4.20
2023-05-03T01:09:50.426Z,4.00
2023-05-03T01:12:54.341Z,4.45
2023-05-03T01:16:16.991Z,4.03
2023-05-03T01:18:51.974Z,5.93
2023-05-03T01:21:24.240Z,4.20
2023-05-03T01:24:19.174Z,4.30
2023-05-03T01:26:47.178Z,4.00
2023-05-03T01:29:15.855Z,4.50
2023-05-03T01:32:19.437Z,4.35
2023-05-03T01:35:21.011Z,4.88
2023-05-03T01:37:52.779Z,4.60
2023-05-03T01:40:26.990Z,4.90
2023-05-03T01:42:59.873Z,4.85
2023-05-03T01:45:31.273Z,4.20
2023-05-03T01:48:01.638Z,4.57
2023-05-03T01:50:31.581Z,4.75
2023-05-03T01:53:02.135Z,4.60
2023-05-03T01:55:32.371Z,4.10
2023-05-03T01:58:01.048Z,4.80
2023-05-03T02:00:29.524Z,5.10
2023-05-03T02:02:58.493Z,5.25
2023-05-03T02:05:26.253Z,4.43
2023-05-03T02:07:54.714Z,4.78
2023-05-03T02:10:22.883Z,5.80
2023-05-03T02:12:51.553Z,4.70
2023-05-03T02:15:22.721Z,4.72
2023-05-03T02:17:51.396Z,5.05
2023-05-03T02:20:19.789Z,5.25
2023-05-03T02:22:47.989Z,4.72
2023-05-03T02:25:16.454Z,5.07
2023-05-03T02:27:44.880Z,4.90
2023-05-03T02:30:13.682Z,4.47
2023-05-03T02:32:41.939Z,4.90
2023-05-03T02:35:10.812Z,4.90
2023-05-03T02:37:38.720Z,4.68
2023-05-03T02:40:09.786Z,6.40
2023-05-03T02:42:40.950Z,4.80
2023-05-03T02:45:11.894Z,5.50
2023-05-03T02:47:42.206Z,5.30
2023-05-03T02:50:12.444Z,5.25
2023-05-03T02:52:42.625Z,5.20
2023-05-03T02:55:12.859Z,5.40
2023-05-03T02:57:43.316Z,4.78
2023-05-03T03:00:17.841Z,5.00
2023-05-03T03:02:48.186Z,5.13
2023-05-03T03:05:18.763Z,5.15
2023-05-03T03:07:49.064Z,4.90
2023-05-03T03:10:19.435Z,5.13
2023-05-03T03:12:49.933Z,5.25
2023-05-03T03:15:20.148Z,5.25
2023-05-03T03:17:50.304Z,5.28
2023-05-03T03:20:20.506Z,5.20
2023-05-03T03:22:50.718Z,4.90
2023-05-03T03:25:21.657Z,4.60
2023-05-03T03:27:51.848Z,5.00
2023-05-03T03:30:22.205Z,4.53
2023-05-03T03:32:50.456Z,4.57
2023-05-03T03:35:19.786Z,4.78
2023-05-03T03:37:47.402Z,4.70
2023-05-03T03:40:15.806Z,4.70
2023-05-03T03:42:44.441Z,4.53
2023-05-03T03:45:13.184Z,5.90
2023-05-03T03:47:41.176Z,4.97
2023-05-03T03:50:10.355Z,5.03
2023-05-03T03:52:38.206Z,5.35
2023-05-03T03:55:07.752Z,4.60
2023-05-03T03:57:37.756Z,5.32
2023-05-03T04:00:11.946Z,5.65
2023-05-03T04:02:42.534Z,4.80
2023-05-03T04:05:12.976Z,4.22
2023-05-03T04:07:43.224Z,5.22
2023-05-03T04:10:13.353Z,4.32
2023-05-03T04:12:43.598Z,5.15
2023-05-03T04:15:14.143Z,5.07
2023-05-03T04:17:44.411Z,4.82
2023-05-03T04:20:14.729Z,4.72
2023-05-03T04:22:45.026Z,4.72
2023-05-03T04:25:15.243Z,4.30
2023-05-03T04:27:47.550Z,4.57
2023-05-03T04:30:18.283Z,5.10
2023-05-03T04:32:48.463Z,4.50
2023-05-03T04:35:18.894Z,5.20
2023-05-03T04:37:49.103Z,4.50
2023-05-03T04:40:19.938Z,4.30
2023-05-03T04:42:50.163Z,4.85
2023-05-03T04:45:21.166Z,4.70
2023-05-03T04:47:51.449Z,4.00
2023-05-03T04:50:21.728Z,7.45
2023-05-03T04:52:51.957Z,4.40
2023-05-03T04:55:22.326Z,5.13
2023-05-03T04:57:52.579Z,4.88
2023-05-03T05:00:23.852Z,4.07
2023-05-03T05:02:54.255Z,4.93
2023-05-03T05:05:24.449Z,4.57
2023-05-03T05:07:54.603Z,4.35
2023-05-03T05:10:24.938Z,4.35
2023-05-03T05:12:55.232Z,4.05
2023-05-03T05:15:25.330Z,4.65
2023-05-03T05:17:55.819Z,5.65
2023-05-03T05:20:26.696Z,4.22
2023-05-03T05:22:56.996Z,4.38
2023-05-03T05:25:27.460Z,4.75
2023-05-03T05:27:57.616Z,4.95
2023-05-03T05:30:27.726Z,4.85
2023-05-03T05:32:58.008Z,4.68
2023-05-03T05:35:28.486Z,3.85
2023-05-03T05:37:58.632Z,3.97
2023-05-03T05:40:28.733Z,3.67
2023-05-03T05:42:57.515Z,5.45
2023-05-03T05:45:25.925Z,3.55
2023-05-03T05:47:54.244Z,3.65
2023-05-03T05:50:23.029Z,4.57
2023-05-03T05:52:55.286Z,4.00
2023-05-03T05:55:25.607Z,4.55
2023-05-03T05:57:55.751Z,4.00
2023-05-03T06:00:26.332Z,3.72
2023-05-03T06:02:56.769Z,4.07
2023-05-03T06:05:27.060Z,3.78
2023-05-03T06:07:57.251Z,4.10
2023-05-03T06:10:27.422Z,3.33
2023-05-03T06:12:57.660Z,3.22
2023-05-03T06:15:27.946Z,3.70
2023-05-03T06:17:58.106Z,3.38
2023-05-03T06:20:28.310Z,3.78
2023-05-03T06:22:58.501Z,3.40
2023-05-03T06:25:28.758Z,3.70
2023-05-03T06:27:58.867Z,3.15
2023-05-03T06:30:28.928Z,3.80
2023-05-03T06:32:59.081Z,2.92
2023-05-03T06:35:29.648Z,3.00
2023-05-03T06:37:59.837Z,2.80
2023-05-03T06:40:29.968Z,3.70
2023-05-03T06:43:00.078Z,2.70
2023-05-03T06:45:30.219Z,2.95
2023-05-03T06:48:00.548Z,3.50
2023-05-03T06:50:30.961Z,2.92
2023-05-03T06:53:01.119Z,2.85
2023-05-03T06:55:33.172Z,3.10
2023-05-03T06:58:03.434Z,2.40
2023-05-03T07:00:33.683Z,2.45
2023-05-03T07:03:02.070Z,2.35
2023-05-03T07:05:30.650Z,2.47
2023-05-03T07:07:58.835Z,2.42
2023-05-03T07:10:31.254Z,2.50
2023-05-03T07:12:58.844Z,2.60
2023-05-03T07:15:27.293Z,2.70
2023-05-03T07:17:55.758Z,2.65
2023-05-03T07:20:24.217Z,2.47
2023-05-03T07:22:52.543Z,2.95
2023-05-03T07:25:21.057Z,2.38
2023-05-03T07:27:49.362Z,2.90
2023-05-03T07:30:18.380Z,3.15
2023-05-03T07:32:46.346Z,3.70
2023-05-03T07:35:15.636Z,3.15
2023-05-03T07:37:43.549Z,2.33
2023-05-03T07:40:12.467Z,2.35
2023-05-03T07:42:40.021Z,2.60
2023-05-03T07:45:09.353Z,2.40
2023-05-03T07:47:40.361Z,2.50
2023-05-03T07:50:10.918Z,2.25
2023-05-03T07:52:42.482Z,2.50
2023-05-03T07:55:12.793Z,2.53
2023-05-03T07:57:42.978Z,2.67
2023-05-03T08:00:15.032Z,2.47
2023-05-03T08:02:45.410Z,2.28
2023-05-03T08:05:15.963Z,4.35
2023-05-03T08:07:46.600Z,2.35
2023-05-03T08:10:16.980Z,2.60
2023-05-03T08:12:48.126Z,2.58
2023-05-03T08:15:18.406Z,2.60
2023-05-03T08:17:48.854Z,2.72
2023-05-03T08:20:19.003Z,2.90
2023-05-03T08:22:49.130Z,2.70
2023-05-03T08:25:19.803Z,3.03
2023-05-03T08:27:49.966Z,2.85
2023-05-03T08:30:22.321Z,2.30
2023-05-03T08:32:53.241Z,3.22
2023-05-03T08:35:23.434Z,2.42
2023-05-03T08:37:53.880Z,3.35
2023-05-03T08:40:28.326Z,2.83
2023-05-03T08:43:10.092Z,2.67
2023-05-03T08:45:40.240Z,2.83
2023-05-03T08:48:11.778Z,2.95
2023-05-03T08:50:42.927Z,3.10
2023-05-03T08:53:13.142Z,2.83
2023-05-03T08:55:44.689Z,3.33
2023-05-03T08:58:14.925Z,3.22
2023-05-03T09:00:45.469Z,3.20
2023-05-03T09:03:13.757Z,2.70
2023-05-03T09:05:44.516Z,2.22
2023-05-03T09:08:14.791Z,3.22
2023-05-03T09:10:45.168Z,3.15
2023-05-03T09:13:15.359Z,2.88
2023-05-03T09:15:58.463Z,2.63
2023-05-03T09:18:30.748Z,2.70
2023-05-03T09:21:00.865Z,3.00
2023-05-03T09:23:31.975Z,2.63
2023-05-03T09:32:06.803Z,3.28
2023-05-03T09:34:37.461Z,2.90
2023-05-03T09:37:07.729Z,2.78
2023-05-03T09:39:37.826Z,2.60
2023-05-03T09:42:26.054Z,2.67
2023-05-03T09:44:56.223Z,2.97
2023-05-03T09:47:26.121Z,2.88
2023-05-03T09:49:56.764Z,2.75
2023-05-03T09:52:31.085Z,2.88
2023-05-03T09:55:01.531Z,2.40
2023-05-03T09:57:33.676Z,3.17
2023-05-03T10:00:04.291Z,3.25
2023-05-03T10:02:35.148Z,3.00
2023-05-03T10:05:08.152Z,3.63
2023-05-03T10:07:43.350Z,4.10
2023-05-03T10:10:12.268Z,2.92
2023-05-03T10:12:41.987Z,2.75
2023-05-03T10:15:19.765Z,2.72
2023-05-03T10:17:58.171Z,2.90
2023-05-03T10:20:42.140Z,3.20
2023-05-03T10:23:14.579Z,2.80
2023-05-03T10:26:22.914Z,2.78
2023-05-03T10:31:47.309Z,2.75
2023-05-03T10:34:26.056Z,2.60
2023-05-03T10:42:09.705Z,4.32
2023-05-03T10:44:56.026Z,3.05
2023-05-03T10:47:26.676Z,3.22
2023-05-03T10:50:26.108Z,2.58
2023-05-03T10:52:56.226Z,2.38
2023-05-03T10:55:28.185Z,2.50
2023-05-03T10:58:01.633Z,2.83
2023-05-03T11:00:44.692Z,2.55
2023-05-03T11:04:13.873Z,2.90
2023-05-03T11:06:46.313Z,2.75
2023-05-03T11:09:15.819Z,2.60
2023-05-03T11:11:43.970Z,3.20
2023-05-03T11:14:14.018Z,2.70
2023-05-03T11:16:51.259Z,2.63
2023-05-03T11:19:21.609Z,2.65
2023-05-03T11:21:52.436Z,2.55
2023-05-03T11:24:22.726Z,2.40
2023-05-03T11:26:52.904Z,4.00
2023-05-03T11:29:26.277Z,2.72
2023-05-03T11:31:56.683Z,2.70
2023-05-03T11:34:27.019Z,2.63
2023-05-03T11:36:59.878Z,2.90
2023-05-03T11:39:33.398Z,2.42
2023-05-03T11:42:07.967Z,2.42
2023-05-03T11:44:38.413Z,2.60
2023-05-03T11:47:09.676Z,2.72
2023-05-03T11:49:40.060Z,3.58
2023-05-03T11:52:10.338Z,2.80
2023-05-03T11:54:40.704Z,3.25
2023-05-03T11:57:15.007Z,2.17
2023-05-03T11:59:45.832Z,2.60
2023-05-03T12:02:16.148Z,2.50
2023-05-03T12:04:46.539Z,2.70
2023-05-03T12:07:19.591Z,2.55
2023-05-03T12:10:06.849Z,2.53
2023-05-03T12:12:47.085Z,3.45
2023-05-03T12:15:34.039Z,2.60
2023-05-03T12:18:11.478Z,2.95
2023-05-03T12:21:28.995Z,2.85
2023-05-03T12:23:29.910Z,2.60
2023-05-03T12:26:00.892Z,2.58
2023-05-03T12:28:31.526Z,2.33
2023-05-03T12:31:03.138Z,2.60
2023-05-03T12:33:38.164Z,2.40
2023-05-03T12:36:10.043Z,2.97
2023-05-03T12:38:43.281Z,2.92
2023-05-03T12:41:17.107Z,2.85
2023-05-03T12:44:00.428Z,3.10
2023-05-03T12:46:34.885Z,2.63
2023-05-03T12:49:07.950Z,2.97
2023-05-03T12:51:42.264Z,3.13
2023-05-03T12:54:11.891Z,2.58
2023-05-03T12:56:47.719Z,2.55
2023-05-03T12:59:39.121Z,3.10
2023-05-03T13:04:57.201Z,2.65
2023-05-03T13:07:32.121Z,2.97
2023-05-03T13:12:40.915Z,2.75
2023-05-03T13:15:11.609Z,2.25
2023-05-03T13:17:41.825Z,2.95
2023-05-03T13:20:13.927Z,2.33
2023-05-03T13:22:44.257Z,2.47
2023-05-03T13:25:13.409Z,2.63
2023-05-03T13:27:41.855Z,2.80
2023-05-03T13:30:11.029Z,2.75
2023-05-03T13:32:39.137Z,2.22
2023-05-03T13:35:09.750Z,2.65
2023-05-03T13:37:39.978Z,2.45
2023-05-03T13:40:11.467Z,3.13
2023-05-03T13:42:41.763Z,2.58
2023-05-03T13:45:13.688Z,3.00
2023-05-03T13:48:05.316Z,4.07
2023-05-03T13:50:34.008Z,2.47
2023-05-03T13:53:04.187Z,2.42
2023-05-03T13:55:34.373Z,2.22
2023-05-03T13:58:04.490Z,2.50
2023-05-03T14:00:34.621Z,2.72
2023-05-03T14:03:04.997Z,2.47
2023-05-03T14:05:35.916Z,2.20
2023-05-03T14:08:05.826Z,2.50
2023-05-03T14:10:36.468Z,2.67
2023-05-03T14:13:06.005Z,2.95
2023-05-03T14:15:45.436Z,2.40
2023-05-03T14:18:14.474Z,2.88
2023-05-03T14:20:42.455Z,2.85
2023-05-03T14:23:10.789Z,3.33
2023-05-03T14:25:38.942Z,2.92
2023-05-03T14:28:07.559Z,2.20
2023-05-03T14:30:36.547Z,2.83
2023-05-03T14:33:04.326Z,2.70
2023-05-03T14:35:32.795Z,2.63
2023-05-03T14:38:01.301Z,2.75
2023-05-03T14:40:29.747Z,2.63
2023-05-03T14:42:58.239Z,3.17
2023-05-03T14:45:26.878Z,2.85
2023-05-03T14:47:55.172Z,3.97
2023-05-03T14:50:23.880Z,3.03
2023-05-03T14:52:52.380Z,2.47
2023-05-03T14:55:20.809Z,3.13
2023-05-03T14:57:49.456Z,2.20
2023-05-03T15:00:18.557Z,3.17
2023-05-03T15:02:47.002Z,2.53
2023-05-03T15:05:15.126Z,2.55
2023-05-03T15:07:43.204Z,2.85
2023-05-03T15:10:11.738Z,2.55
2023-05-03T15:12:40.354Z,2.72
2023-05-03T15:15:10.367Z,3.55
2023-05-03T15:17:40.258Z,2.33
2023-05-03T15:20:10.612Z,2.72
2023-05-03T15:22:40.873Z,2.47
2023-05-03T15:25:11.251Z,3.33
2023-05-03T15:27:41.357Z,2.90
2023-05-03T15:30:12.488Z,2.47
2023-05-03T15:32:42.966Z,2.60
2023-05-03T15:35:13.338Z,3.55
2023-05-03T15:37:43.547Z,2.58
2023-05-03T15:40:13.967Z,2.75
2023-05-03T15:42:44.131Z,2.55
2023-05-03T15:45:15.581Z,2.63
2023-05-03T15:47:46.244Z,3.03
2023-05-03T15:50:16.567Z,2.65
2023-05-03T15:52:46.945Z,2.58
2023-05-03T15:55:19.466Z,2.38
2023-05-03T15:57:49.596Z,2.38
2023-05-03T16:00:20.438Z,2.33
2023-05-03T16:02:50.752Z,2.83
2023-05-03T16:05:21.027Z,2.50
2023-05-03T16:07:51.956Z,3.28
2023-05-03T16:10:24.734Z,2.92
2023-05-03T16:12:55.290Z,2.78
2023-05-03T16:15:25.481Z,2.53
2023-05-03T16:17:55.843Z,2.70
2023-05-03T16:20:26.120Z,3.13
2023-05-03T16:22:56.693Z,2.60
2023-05-03T16:25:29.082Z,3.05
2023-05-03T16:27:59.716Z,2.53
2023-05-03T16:30:30.118Z,2.35
2023-05-03T16:33:00.690Z,2.10
2023-05-03T16:35:31.137Z,2.50
2023-05-03T16:38:03.030Z,2.63
2023-05-03T16:40:32.664Z,2.63
2023-05-03T16:43:01.216Z,3.08
2023-05-03T16:45:31.421Z,3.28
2023-05-03T16:48:04.737Z,2.88
2023-05-03T16:50:37.768Z,2.63
2023-05-03T16:53:07.956Z,3.13
2023-05-03T16:55:38.088Z,3.78
2023-05-03T16:58:08.369Z,2.13
2023-05-03T17:00:38.782Z,3.05
2023-05-03T17:03:09.006Z,2.58
2023-05-03T17:05:39.434Z,3.00
2023-05-03T17:08:09.557Z,2.80
2023-05-03T17:10:39.664Z,2.92
2023-05-03T17:13:10.115Z,3.60
2023-05-03T17:15:40.300Z,2.42
2023-05-03T17:18:10.494Z,2.33
2023-05-03T17:20:40.711Z,3.17
2023-05-03T17:23:10.886Z,2.38
2023-05-03T17:25:42.754Z,2.75
2023-05-03T17:28:12.932Z,2.83
2023-05-03T17:30:43.119Z,2.90
2023-05-03T17:33:13.302Z,3.08
2023-05-03T17:35:44.554Z,2.65
2023-05-03T17:38:15.993Z,2.58
2023-05-03T17:40:46.563Z,2.88
2023-05-03T17:43:17.917Z,2.40
2023-05-03T17:45:48.242Z,2.42
2023-05-03T17:48:18.363Z,2.60
2023-05-03T17:50:58.940Z,2.40
2023-05-03T17:53:29.158Z,2.33
2023-05-03T17:55:59.345Z,2.72
2023-05-03T17:58:29.453Z,2.53
2023-05-03T18:00:59.591Z,2.70
2023-05-03T18:03:30.045Z,2.83
2023-05-03T18:06:00.202Z,2.95
2023-05-03T18:08:30.435Z,2.60
2023-05-03T18:11:01.611Z,2.83
2023-05-03T18:13:33.442Z,3.17
2023-05-03T18:16:08.558Z,2.72
2023-05-03T18:18:38.773Z,2.85
2023-05-03T18:21:11.848Z,2.90
2023-05-03T18:23:43.133Z,2.30
2023-05-03T18:26:14.561Z,2.78
2023-05-03T18:28:44.719Z,2.92
2023-05-03T18:31:14.869Z,2.35
2023-05-03T18:33:45.077Z,2.65
2023-05-03T18:36:15.742Z,2.88
2023-05-03T18:38:47.273Z,2.85
2023-05-03T18:41:17.700Z,2.38
2023-05-03T18:43:48.271Z,2.75
2023-05-03T18:46:20.468Z,2.70
2023-05-03T18:48:50.840Z,2.40
2023-05-03T18:51:20.949Z,2.75
2023-05-03T18:53:51.062Z,3.20
2023-05-03T18:56:21.607Z,3.10
2023-05-03T18:58:52.062Z,2.65
2023-05-03T19:01:20.166Z,2.85
2023-05-03T19:03:48.622Z,3.38
2023-05-03T19:06:16.956Z,2.90
2023-05-03T19:08:47.141Z,3.53
2023-05-03T19:11:17.481Z,3.88
2023-05-03T19:13:46.427Z,2.40
2023-05-03T19:16:17.682Z,3.00
2023-05-03T19:18:48.245Z,2.97
2023-05-03T19:21:19.737Z,2.40
2023-05-03T19:23:49.824Z,3.03
2023-05-03T19:26:20.004Z,2.72
2023-05-03T19:28:50.155Z,2.72
2023-05-03T19:31:20.390Z,3.05
2023-05-03T19:33:50.479Z,2.67
2023-05-03T19:36:20.678Z,2.55
2023-05-03T19:38:50.964Z,2.95
2023-05-03T19:41:21.464Z,3.03
2023-05-03T19:43:55.606Z,3.03
2023-05-03T19:46:25.791Z,3.03
2023-05-03T19:48:55.868Z,3.65
2023-05-03T19:51:26.619Z,3.00
2023-05-03T19:53:57.666Z,2.92
2023-05-03T19:56:28.030Z,3.38
2023-05-03T19:58:58.284Z,4.20
2023-05-03T20:01:29.332Z,4.07
2023-05-03T20:03:59.638Z,4.05
2023-05-03T20:06:29.918Z,3.45
2023-05-03T20:09:00.364Z,5.05
2023-05-03T20:11:30.553Z,3.58
2023-05-03T20:14:00.955Z,3.60
2023-05-03T20:16:33.644Z,3.67
2023-05-03T20:19:04.168Z,3.25
2023-05-03T20:21:34.384Z,3.58
2023-05-03T20:24:05.029Z,3.78
2023-05-03T20:26:32.980Z,3.38
2023-05-03T20:29:01.416Z,3.70
2023-05-03T20:31:29.798Z,4.00
2023-05-03T20:33:58.357Z,4.47
2023-05-03T20:36:26.727Z,4.70
2023-05-03T20:38:55.867Z,4.75
2023-05-03T20:41:24.332Z,5.50
2023-05-03T20:43:55.008Z,5.45
2023-05-03T20:46:23.502Z,5.22
2023-05-03T20:48:52.080Z,5.82
2023-05-03T20:51:20.445Z,5.60
2023-05-03T20:53:48.817Z,5.43
2023-05-03T20:56:17.674Z,6.25
2023-05-03T20:58:45.984Z,5.75
2023-05-03T21:01:14.526Z,5.60
2023-05-03T21:03:42.599Z,5.50
2023-05-03T21:06:10.813Z,5.93
2023-05-03T21:08:39.284Z,5.30
2023-05-03T21:11:08.552Z,5.10
2023-05-03T21:13:36.174Z,5.05
2023-05-03T21:16:08.079Z,5.50
2023-05-03T21:18:38.273Z,6.03
2023-05-03T21:21:08.468Z,5.57
2023-05-03T21:23:38.627Z,6.88
2023-05-03T21:26:08.901Z,4.40
2023-05-03T21:28:39.185Z,5.50
2023-05-03T21:31:09.767Z,5.60
2023-05-03T21:33:39.969Z,5.20
2023-05-03T21:36:10.268Z,6.10
2023-05-03T21:38:40.941Z,4.38
2023-05-03T21:41:11.365Z,5.53
2023-05-03T21:43:41.583Z,4.60
2023-05-03T21:46:11.841Z,5.60
2023-05-03T21:48:42.030Z,4.57
2023-05-03T21:51:25.163Z,4.80
2023-05-03T21:53:55.404Z,4.07
2023-05-03T21:56:25.612Z,5.03
2023-05-03T21:58:55.811Z,4.13
2023-05-03T22:01:26.183Z,4.47
2023-05-03T22:03:56.624Z,4.25
2023-05-03T22:06:27.174Z,4.03
2023-05-03T22:08:58.221Z,4.57
2023-05-03T22:11:28.979Z,4.30
2023-05-03T22:14:07.384Z,4.30
2023-05-03T22:16:42.258Z,4.88
2023-05-03T22:19:10.288Z,7.25
2023-05-03T22:21:38.007Z,4.40
2023-05-03T22:24:07.677Z,3.95
2023-05-03T22:26:34.913Z,4.80
2023-05-03T22:29:03.561Z,4.32
2023-05-03T22:31:32.285Z,4.95
2023-05-03T22:38:33.952Z,4.05
2023-05-03T22:41:04.090Z,5.30
2023-05-03T22:43:34.323Z,4.90
2023-05-03T22:46:04.935Z,3.88
2023-05-03T22:48:35.493Z,5.05
2023-05-03T22:51:06.335Z,5.10
2023-05-03T22:53:36.422Z,5.07
2023-05-03T22:56:07.376Z,5.18
2023-05-03T22:58:35.156Z,4.90
2023-05-03T23:01:09.689Z,5.25
2023-05-03T23:03:40.064Z,5.20
2023-05-03T23:06:08.867Z,5.50
2023-05-03T23:08:37.954Z,6.05
2023-05-03T23:11:08.491Z,5.65
2023-05-03T23:13:38.676Z,5.93
2023-05-03T23:16:09.332Z,5.70
2023-05-03T23:18:39.623Z,6.55
2023-05-03T23:21:08.030Z,6.45
2023-05-03T23:23:36.519Z,5.43
2023-05-03T23:26:04.983Z,5.82
2023-05-03T23:28:33.441Z,5.95
2023-05-03T23:31:01.674Z,5.35
2023-05-03T23:33:31.286Z,5.55
2023-05-03T23:35:58.686Z,6.57
2023-05-03T23:38:27.258Z,5.85
2023-05-03T23:40:55.455Z,5.97
2023-05-03T23:43:23.842Z,6.15
2023-05-03T23:45:52.286Z,5.90
2023-05-03T23:48:20.637Z,5.85
2023-05-03T23:50:49.112Z,5.65
2023-05-03T23:53:17.626Z,5.10
2023-05-03T23:55:47.991Z,5.03
2023-05-03T23:58:18.196Z,5.65
